createdAt,value
2018-03-08T00:07:23.033Z,12.6
2018-03-08T00:17:22.276Z,13.1
2018-03-08T00:27:21.485Z,13
2018-03-08T00:37:21.165Z,12.7
2018-03-08T00:47:19.889Z,13
2018-03-08T00:57:19.149Z,13
2018-03-08T01:07:18.542Z,13.2
2018-03-08T01:17:17.474Z,12.9
2018-03-08T01:27:16.689Z,13
2018-03-08T01:37:16.224Z,13.1
2018-03-08T01:47:15.079Z,13.1
2018-03-08T01:57:14.253Z,12.7
2018-03-08T02:07:13.568Z,12.8
2018-03-08T02:17:12.690Z,13.1
2018-03-08T02:27:11.962Z,12.6
2018-03-08T02:37:11.046Z,13
2018-03-08T02:47:10.531Z,12.8
2018-03-08T02:57:09.461Z,13.2
2018-03-08T03:07:08.940Z,13.1
2018-03-08T03:17:07.884Z,12.7
2018-03-08T03:27:07.068Z,13.1
2018-03-08T03:37:06.319Z,12.7
2018-03-08T03:47:05.611Z,12.8
2018-03-08T03:57:04.753Z,12.5
2018-03-08T04:07:04.075Z,12.7
2018-03-08T04:17:03.143Z,13.2
2018-03-08T04:27:02.286Z,12.9
2018-03-08T04:37:01.580Z,13.1
2018-03-08T04:47:00.979Z,12.5
2018-03-08T04:57:00.181Z,13
2018-03-08T05:06:59.255Z,12.6
2018-03-08T05:16:58.329Z,12.6
2018-03-08T05:26:57.842Z,12.6
2018-03-08T05:36:56.730Z,13.2
2018-03-08T05:46:55.922Z,13.2
2018-03-08T05:56:55.149Z,12.9
2018-03-08T06:06:54.341Z,12.6
2018-03-08T06:16:53.635Z,12.4
2018-03-08T06:26:52.914Z,13
2018-03-08T06:36:51.952Z,12.5
2018-03-08T06:46:51.152Z,12.5
2018-03-08T06:56:50.673Z,13.2
2018-03-08T07:06:49.669Z,12.6
2018-03-08T07:16:49.108Z,12.5
2018-03-08T07:26:48.010Z,13.1
2018-03-08T07:36:47.236Z,12.6
2018-03-08T07:46:46.362Z,12.9
2018-03-08T07:56:45.567Z,13.2
2018-03-08T08:06:45.108Z,13.1
2018-03-08T08:16:43.969Z,12.5
2018-03-08T08:26:43.361Z,13
2018-03-08T08:36:42.396Z,13.1
2018-03-08T08:46:41.651Z,13.2
2018-03-08T08:56:40.839Z,13.9
2018-03-08T09:06:39.990Z,14.3
2018-03-08T09:16:39.317Z,14.1
2018-03-08T09:26:38.723Z,14.4
2018-03-08T09:36:37.599Z,14.1
2018-03-08T09:46:37.194Z,14.4
2018-03-08T09:56:36.072Z,14.6
2018-03-08T10:06:35.299Z,14.2
2018-03-08T10:16:34.411Z,14.2
2018-03-08T10:26:33.616Z,14.6
2018-03-08T10:36:32.959Z,14.2
2018-03-08T10:46:32.322Z,14.4
2018-03-08T10:56:31.218Z,14.4
2018-03-08T11:06:30.699Z,14.7
2018-03-08T11:16:29.905Z,14.2
2018-03-08T11:26:29.144Z,14.3
2018-03-08T11:36:28.109Z,14
2018-03-08T11:46:27.232Z,13.3
2018-03-08T11:56:26.437Z,14
2018-03-08T12:06:25.783Z,13.9
2018-03-08T12:16:25.510Z,13.9
2018-03-08T12:26:24.046Z,14.4
2018-03-08T12:36:23.324Z,14.7
2018-03-08T12:46:22.515Z,14.2
2018-03-08T12:56:21.652Z,13.5
2018-03-08T13:06:20.902Z,13.4
2018-03-08T13:16:20.266Z,14.7
2018-03-08T13:26:19.546Z,14.7
2018-03-08T13:36:18.819Z,14.7
2018-03-08T13:46:17.726Z,13.3
2018-03-08T13:56:17.183Z,13.1
2018-03-08T14:06:16.364Z,12.7
2018-03-08T14:16:15.353Z,12.7
2018-03-08T14:26:14.529Z,13.1
2018-03-08T14:36:13.812Z,13
2018-03-08T14:46:13.015Z,13.2
2018-03-08T14:56:12.416Z,12.6
2018-03-08T15:06:11.326Z,12.6
2018-03-08T15:16:10.902Z,13
2018-03-08T15:26:09.707Z,12.8
2018-03-08T15:36:08.937Z,12.5
2018-03-08T15:46:08.124Z,13
2018-03-08T15:56:07.397Z,12.7
2018-03-08T16:06:06.525Z,13.2
2018-03-08T16:16:05.725Z,12.8
2018-03-08T16:26:04.928Z,12.6
2018-03-08T16:36:04.532Z,12.6
2018-03-08T16:46:03.359Z,13
2018-03-08T16:56:02.890Z,13.1
2018-03-08T17:06:01.928Z,12.6
2018-03-08T17:16:01.173Z,13
2018-03-08T17:26:00.195Z,13.1
2018-03-08T17:35:59.402Z,13
2018-03-08T17:45:58.604Z,12.7
2018-03-08T17:55:58.412Z,13
2018-03-08T18:05:57.247Z,12.5
2018-03-08T18:15:56.172Z,13.2
2018-03-08T18:25:55.383Z,12.5
2018-03-08T18:35:54.648Z,12.9
2018-03-08T18:45:53.801Z,12.8
2018-03-08T18:55:52.987Z,13
2018-03-08T19:05:52.461Z,12.6
2018-03-08T19:15:51.400Z,13.1
2018-03-08T19:25:50.608Z,12.7
2018-03-08T19:35:50.081Z,13.2
2018-03-08T19:45:49.229Z,12.6
2018-03-08T19:55:48.305Z,12.6
2018-03-08T20:05:47.478Z,12.7
2018-03-08T20:15:46.675Z,13.2
2018-03-08T20:25:45.873Z,13.1
2018-03-08T20:35:45.111Z,12.4
2018-03-08T20:45:44.281Z,12.6
2018-03-08T20:55:43.505Z,13
2018-03-08T21:05:42.652Z,13
2018-03-08T21:15:41.981Z,13
2018-03-08T21:25:41.160Z,13.1
2018-03-08T21:35:40.672Z,12.9
2018-03-08T21:45:40.087Z,13.1
2018-03-08T21:55:38.773Z,13.1
2018-03-08T22:05:37.915Z,12.5
2018-03-08T22:15:37.186Z,12.8
2018-03-08T22:25:36.310Z,13.1
2018-03-08T22:35:35.553Z,12.9
2018-03-08T22:45:34.797Z,12.8
2018-03-08T22:55:34.100Z,12.4
2018-03-08T23:05:33.271Z,13.1
2018-03-08T23:15:32.447Z,13.1
2018-03-08T23:25:31.627Z,13.1
2018-03-08T23:35:30.727Z,12.5
2018-03-08T23:45:30.008Z,12.6
2018-03-08T23:55:29.222Z,12.7
